Time;durP1;ratioP1;P1;durP2;ratioP2;P2;SDS_P1;SDS_P2;PMS_P1;PMS_P2;Temp;Humidity;BMP_temperature;BMP_pressure;BME280_temperature;BME280_humidity;BME280_pressure;Samples;Min_cycle;Max_cycle;Signal;HPM_P1;HPM_P2
2023/09/04 00:01:59;;;;;;;3.00;2.40;;;;;;;20.64;58.35;95057.31;5138857;27;20462;-66
2023/09/04 00:04:26;;;;;;;5.82;2.60;;;;;;;20.42;59.20;95064.34;5139106;27;20184;-66
2023/09/04 00:06:53;;;;;;;3.75;2.40;;;;;;;20.38;60.03;95066.41;5120986;27;20276;-66
2023/09/04 00:09:23;;;;;;;3.35;2.55;;;;;;;20.24;60.59;95070.13;5138917;27;20185;-66
2023/09/04 00:11:49;;;;;;;4.30;2.50;;;;;;;20.22;61.50;95068.94;5138669;27;20553;-66
2023/09/04 00:14:16;;;;;;;2.72;2.53;;;;;;;20.17;63.08;95061.81;5120438;27;20202;-66
2023/09/04 00:16:43;;;;;;;3.22;2.63;;;;;;;20.04;62.14;95046.72;5138818;27;20195;-66
2023/09/04 00:19:10;;;;;;;3.40;2.65;;;;;;;19.93;62.95;95038.44;5138915;27;20206;-66
2023/09/04 00:21:37;;;;;;;2.78;2.40;;;;;;;19.85;63.73;95034.13;5138898;27;20187;-66
2023/09/04 00:24:04;;;;;;;5.15;2.80;;;;;;;19.81;64.40;95020.16;5120696;27;20566;-66
2023/09/04 00:26:32;;;;;;;3.08;2.80;;;;;;;19.79;66.75;95021.78;5120520;27;20198;-66
2023/09/04 00:28:59;;;;;;;3.28;2.63;;;;;;;19.71;66.41;95007.06;5138552;27;20235;-66
2023/09/04 00:31:26;;;;;;;3.17;2.42;;;;;;;19.69;67.25;95010.28;5138172;27;20202;-66
2023/09/04 00:33:52;;;;;;;4.38;2.60;;;;;;;19.56;68.08;95011.94;5120469;27;20219;-66
2023/09/04 00:36:19;;;;;;;4.40;2.70;;;;;;;19.52;67.29;95013.97;5138397;27;20187;-65
2023/09/04 00:38:46;;;;;;;2.65;2.45;;;;;;;19.46;68.52;95015.63;5120365;27;20222;-65
2023/09/04 00:41:31;;;;;;;2.75;2.55;;;;;;;19.39;69.05;95010.91;5138279;27;20214;-66
2023/09/04 00:43:59;;;;;;;3.08;2.72;;;;;;;19.41;69.17;95002.09;5119762;27;20630;-66
2023/09/04 00:46:26;;;;;;;2.83;2.60;;;;;;;19.49;69.49;94992.44;5138177;27;20183;-66
2023/09/04 00:48:53;;;;;;;3.15;2.85;;;;;;;19.53;69.64;94989.59;5120612;27;20222;-66
2023/09/04 00:51:20;;;;;;;3.38;2.63;;;;;;;19.53;70.73;94987.59;5120042;27;20195;-65
2023/09/04 00:53:48;;;;;;;3.85;2.70;;;;;;;19.57;70.70;94980.00;5138060;27;20187;-65
2023/09/04 00:56:16;;;;;;;3.17;2.78;;;;;;;19.56;70.44;94967.19;5119979;27;20285;-65
2023/09/04 00:58:43;;;;;;;3.10;2.60;;;;;;;19.53;70.48;94984.78;5137605;27;20206;-66
2023/09/04 01:01:12;;;;;;;3.28;2.80;;;;;;;19.48;71.33;94986.03;5138261;27;20179;-65
2023/09/04 01:03:38;;;;;;;3.00;2.80;;;;;;;19.47;70.86;94984.47;5137889;27;20187;-65
2023/09/04 01:06:05;;;;;;;4.18;2.88;;;;;;;19.45;71.26;94966.50;5137937;27;20183;-66
2023/09/04 01:08:32;;;;;;;2.60;2.40;;;;;;;19.46;71.27;94962.47;5137766;27;20199;-65
2023/09/04 01:11:04;;;;;;;2.50;2.40;;;;;;;19.45;70.58;94958.09;5120445;27;20248;-65
2023/09/04 01:13:38;;;;;;;5.60;2.85;;;;;;;19.42;70.49;94958.94;5138065;27;20329;-65
2023/09/04 01:16:06;;;;;;;2.88;2.58;;;;;;;19.46;71.33;94954.91;5137620;27;20206;-65
2023/09/04 01:18:35;;;;;;;2.50;2.40;;;;;;;19.41;71.13;94952.53;5119080;27;20269;-65
2023/09/04 01:21:04;;;;;;;3.00;2.58;;;;;;;19.33;70.33;94953.81;5119078;27;20199;-65
2023/09/04 01:23:31;;;;;;;3.47;2.50;;;;;;;19.28;70.09;94951.47;5119791;27;20222;-65
2023/09/04 01:26:15;;;;;;;2.83;2.60;;;;;;;19.29;70.97;94943.88;5136954;27;20194;-67
2023/09/04 01:28:52;;;;;;;2.80;2.60;;;;;;;19.29;71.57;94939.06;5115557;28;20231;-66
2023/09/04 01:31:23;;;;;;;3.13;2.78;;;;;;;19.28;71.47;94931.91;5116188;28;20195;-66
2023/09/04 01:33:52;;;;;;;3.03;2.40;;;;;;;19.26;71.31;94936.31;5115879;28;20204;-66
2023/09/04 01:36:21;;;;;;;2.67;2.47;;;;;;;19.19;70.85;94940.75;5115809;28;20196;-66
2023/09/04 01:38:48;;;;;;;2.63;2.42;;;;;;;19.16;71.11;94940.78;5116782;28;20192;-66
2023/09/04 01:41:14;;;;;;;3.35;2.60;;;;;;;19.15;71.49;94939.97;5115948;28;20210;-67
2023/09/04 01:43:41;;;;;;;3.33;2.53;;;;;;;19.16;71.89;94940.78;5115812;28;20196;-67
2023/09/04 01:46:08;;;;;;;3.53;2.70;;;;;;;19.06;71.47;94936.84;5116507;28;20199;-67
2023/09/04 01:48:36;;;;;;;2.75;2.55;;;;;;;18.99;72.09;94936.91;5115527;28;20187;-66
2023/09/04 01:51:03;;;;;;;4.38;2.70;;;;;;;18.92;71.77;94945.34;5115828;28;20219;-66
2023/09/04 01:53:31;;;;;;;3.17;2.72;;;;;;;18.88;71.69;94947.34;5115682;28;20199;-66
2023/09/04 01:55:59;;;;;;;2.80;2.60;;;;;;;18.86;71.63;94939.41;5115763;28;20203;-66
2023/09/04 01:58:26;;;;;;;2.70;2.50;;;;;;;18.80;71.85;94931.84;5115510;28;20282;-66
2023/09/04 02:00:53;;;;;;;3.50;2.72;;;;;;;18.72;72.23;94931.91;5116147;28;20203;-65
2023/09/04 02:03:20;;;;;;;2.97;2.78;;;;;;;18.69;71.54;94938.25;5116185;28;20199;-66
2023/09/04 02:05:46;;;;;;;3.20;2.90;;;;;;;18.71;71.74;94938.69;5115281;28;20192;-66
2023/09/04 02:08:13;;;;;;;3.40;2.90;;;;;;;18.71;71.43;94940.69;5115805;28;20634;-66
2023/09/04 02:10:42;;;;;;;2.75;2.55;;;;;;;18.72;71.00;94947.88;5114793;28;20207;-65
2023/09/04 02:13:08;;;;;;;2.90;2.70;;;;;;;18.72;68.31;94931.09;5115715;28;20527;-65
2023/09/04 02:15:36;;;;;;;2.60;2.50;;;;;;;18.76;69.13;94941.03;5115053;28;20204;-65
2023/09/04 02:18:04;;;;;;;3.13;2.50;;;;;;;18.76;67.84;94937.47;5114747;28;20688;-65
2023/09/04 02:20:31;;;;;;;3.20;3.00;;;;;;;18.77;67.74;94941.84;5114885;28;20272;-65
2023/09/04 02:22:58;;;;;;;2.85;2.65;;;;;;;18.74;67.68;94948.28;5114576;28;20626;-65
2023/09/04 02:25:25;;;;;;;2.97;2.78;;;;;;;18.75;66.68;94942.25;5115246;28;20202;-65
2023/09/04 02:27:53;;;;;;;3.03;2.83;;;;;;;18.83;64.85;94939.41;5117325;27;20290;-65
2023/09/04 02:30:20;;;;;;;3.05;2.85;;;;;;;18.87;63.96;94934.59;5117971;27;20194;-65
2023/09/04 02:32:47;;;;;;;3.42;3.13;;;;;;;18.89;63.82;94930.19;5118250;28;20206;-65
2023/09/04 02:35:14;;;;;;;3.88;2.78;;;;;;;18.93;63.41;94921.78;5118030;27;20195;-67
2023/09/04 02:37:43;;;;;;;3.20;2.90;;;;;;;18.93;63.93;94933.75;5136100;27;20187;-67
2023/09/04 02:40:11;;;;;;;2.70;2.60;;;;;;;18.94;63.32;94926.16;5136188;28;20214;-66
2023/09/04 02:42:38;;;;;;;3.60;3.10;;;;;;;18.95;63.38;94924.94;5118160;28;20206;-66
2023/09/04 02:45:08;;;;;;;3.30;3.05;;;;;;;18.98;63.01;94921.34;5136338;28;20206;-66
2023/09/04 02:47:36;;;;;;;3.10;2.90;;;;;;;18.98;62.84;94918.53;5135810;28;20546;-66
2023/09/04 02:50:02;;;;;;;3.10;2.80;;;;;;;19.02;62.75;94924.09;5135920;28;20587;-66
2023/09/04 02:52:29;;;;;;;3.00;2.80;;;;;;;18.98;62.28;94933.31;5136089;28;20205;-66
2023/09/04 02:54:56;;;;;;;2.92;2.63;;;;;;;18.96;63.58;94937.75;5118415;28;20252;-66
2023/09/04 02:57:23;;;;;;;2.90;2.70;;;;;;;18.92;64.17;94936.97;5118147;28;20234;-66
2023/09/04 02:59:50;;;;;;;3.08;2.80;;;;;;;18.90;63.42;94936.56;5136049;28;20203;-66
2023/09/04 03:02:18;;;;;;;3.47;3.20;;;;;;;18.92;61.94;94929.38;5117990;28;20209;-65
2023/09/04 03:04:45;;;;;;;2.80;2.60;;;;;;;18.93;62.73;94932.97;5118707;28;20206;-65
2023/09/04 03:07:12;;;;;;;3.20;3.00;;;;;;;18.90;61.38;94937.38;5117751;28;20232;-65
2023/09/04 03:09:38;;;;;;;3.20;3.00;;;;;;;18.88;62.41;94928.63;5118223;28;20199;-65
2023/09/04 03:12:06;;;;;;;3.13;2.92;;;;;;;18.86;63.12;94925.44;5117824;28;20195;-65
2023/09/04 03:14:32;;;;;;;2.95;2.75;;;;;;;18.85;64.18;94926.63;5135968;28;20187;-65
2023/09/04 03:16:59;;;;;;;3.13;2.80;;;;;;;18.82;63.78;94924.66;5118403;28;20202;-65
2023/09/04 03:19:27;;;;;;;4.18;3.78;;;;;;;18.85;62.28;94920.25;5117580;28;20195;-65
2023/09/04 03:21:54;;;;;;;3.28;2.97;;;;;;;18.85;62.40;94920.25;5136094;28;20202;-65
2023/09/04 03:24:23;;;;;;;3.00;2.80;;;;;;;18.85;62.40;94911.88;5117312;28;20241;-65
2023/09/04 03:26:50;;;;;;;3.17;2.88;;;;;;;18.84;61.77;94922.22;5118487;28;20252;-65
2023/09/04 03:29:17;;;;;;;3.10;2.90;;;;;;;18.82;62.21;94918.28;5138881;27;20604;-65
2023/09/04 03:31:43;;;;;;;3.28;2.97;;;;;;;18.79;62.19;94919.88;5121803;27;20195;-65
2023/09/04 03:34:10;;;;;;;2.85;2.67;;;;;;;18.78;62.07;94925.91;5121686;27;20247;-65
2023/09/04 03:36:38;;;;;;;2.88;2.67;;;;;;;18.77;61.88;94930.66;5104280;27;20207;-65
2023/09/04 03:39:06;;;;;;;4.85;3.40;;;;;;;18.73;62.87;94927.88;5139763;27;20195;-65
2023/09/04 03:41:33;;;;;;;2.90;2.70;;;;;;;18.71;63.88;94933.09;5139166;27;20275;-65
2023/09/04 03:44:00;;;;;;;3.58;2.90;;;;;;;18.67;63.33;94937.91;5139486;27;20183;-65
2023/09/04 03:46:27;;;;;;;3.05;2.85;;;;;;;18.64;63.01;94935.91;5139452;27;20187;-65
2023/09/04 03:48:54;;;;;;;3.20;3.00;;;;;;;18.63;63.40;94937.13;5121176;27;20231;-65
2023/09/04 03:51:21;;;;;;;8.32;3.67;;;;;;;18.64;62.62;94947.09;5139090;27;20224;-66
2023/09/04 03:53:49;;;;;;;3.42;3.15;;;;;;;18.59;62.62;94941.94;5121208;27;20191;-66
2023/09/04 03:56:15;;;;;;;3.33;3.03;;;;;;;18.53;63.17;94937.97;5121183;27;20206;-65
2023/09/04 03:58:42;;;;;;;3.33;3.03;;;;;;;18.51;63.87;94946.75;5139080;27;20197;-66
2023/09/04 04:01:09;;;;;;;3.00;2.80;;;;;;;18.50;63.87;94936.00;5121513;27;20214;-65
2023/09/04 04:03:37;;;;;;;3.20;2.90;;;;;;;18.48;64.06;94943.97;5121345;27;20203;-68
2023/09/04 04:06:12;;;;;;;3.72;3.40;;;;;;;18.48;64.55;94941.19;5138844;27;20207;-65
2023/09/04 04:08:38;;;;;;;3.88;3.47;;;;;;;18.44;64.98;94941.19;5120904;27;20198;-65
2023/09/04 04:11:07;;;;;;;3.75;3.20;;;;;;;18.40;64.51;94945.22;5120896;27;20187;-66
2023/09/04 04:13:33;;;;;;;3.50;3.20;;;;;;;18.39;64.62;94938.84;5139200;27;20194;-70
2023/09/04 04:16:00;;;;;;;3.40;3.10;;;;;;;18.39;64.72;94943.63;5120917;27;20199;-65
2023/09/04 04:18:28;;;;;;;3.95;3.20;;;;;;;18.39;65.03;94940.84;5120805;27;20210;-64
2023/09/04 04:20:55;;;;;;;4.05;2.90;;;;;;;18.39;64.33;94932.47;5138298;27;20609;-64
2023/09/04 04:23:21;;;;;;;3.10;2.80;;;;;;;18.38;63.76;94934.47;5120505;27;20202;-64
2023/09/04 04:25:49;;;;;;;2.97;2.78;;;;;;;18.37;63.60;94935.66;5120676;27;20595;-64
2023/09/04 04:28:18;;;;;;;3.03;2.83;;;;;;;18.34;63.42;94935.66;5116929;28;20272;-64
2023/09/04 04:30:44;;;;;;;3.58;3.28;;;;;;;18.35;63.52;94938.06;5118542;28;20195;-64
2023/09/04 04:33:11;;;;;;;2.97;2.78;;;;;;;18.33;63.36;94929.28;5117965;28;20195;-64
2023/09/04 04:35:39;;;;;;;3.10;2.90;;;;;;;18.33;63.36;94936.88;5117412;28;20187;-64
2023/09/04 04:38:06;;;;;;;2.83;2.50;;;;;;;18.33;63.11;94934.09;5116959;28;20533;-64
2023/09/04 04:40:33;;;;;;;3.10;2.90;;;;;;;18.26;63.04;94941.31;5116195;28;20655;-64
2023/09/04 04:43:00;;;;;;;3.33;2.40;;;;;;;18.23;63.28;94935.75;5117851;28;20222;-64
2023/09/04 04:45:28;;;;;;;2.80;2.60;;;;;;;18.17;62.89;94929.78;5117776;28;20188;-64
2023/09/04 04:47:55;;;;;;;3.25;3.03;;;;;;;18.11;62.88;94936.19;5116814;28;20203;-64
2023/09/04 04:50:22;;;;;;;3.10;2.90;;;;;;;18.06;62.99;94933.81;5117588;28;20183;-64
2023/09/04 04:52:49;;;;;;;3.05;2.75;;;;;;;17.98;63.18;94941.41;5117327;28;20229;-64
2023/09/04 04:55:17;;;;;;;2.97;2.78;;;;;;;17.94;63.05;94940.63;5116292;28;20219;-64
2023/09/04 04:57:44;;;;;;;2.70;2.50;;;;;;;17.84;63.16;94933.88;5117574;28;20240;-64
2023/09/04 05:00:12;;;;;;;3.15;2.95;;;;;;;17.80;63.14;94930.31;5117304;28;20211;-64
2023/09/04 05:02:40;;;;;;;2.78;2.58;;;;;;;17.77;63.26;94937.47;5117063;28;20514;-64
2023/09/04 05:05:08;;;;;;;3.13;2.88;;;;;;;17.76;63.16;94935.09;5116528;28;20252;-64
2023/09/04 05:07:35;;;;;;;3.63;3.33;;;;;;;17.79;63.11;94932.31;5117409;28;20277;-64
2023/09/04 05:10:01;;;;;;;2.78;2.58;;;;;;;17.81;63.22;94934.69;5116388;28;20196;-64
2023/09/04 05:12:28;;;;;;;2.70;2.40;;;;;;;17.82;62.89;94930.69;5115932;28;20208;-64
2023/09/04 05:14:55;;;;;;;3.00;2.70;;;;;;;17.85;63.07;94929.09;5117106;28;20195;-64
2023/09/04 05:17:23;;;;;;;2.63;2.42;;;;;;;17.84;62.51;94927.50;5099028;28;20231;-64
2023/09/04 05:19:51;;;;;;;2.92;2.72;;;;;;;17.83;62.63;94932.31;5115972;28;20276;-64
2023/09/04 05:22:18;;;;;;;2.53;2.33;;;;;;;17.77;62.53;94923.53;5116177;28;20183;-64
2023/09/04 05:24:45;;;;;;;2.33;2.22;;;;;;;17.76;62.57;94933.09;5117011;28;20203;-64
2023/09/04 05:27:11;;;;;;;2.70;2.50;;;;;;;17.74;62.55;94927.09;5116880;28;20248;-64
2023/09/04 05:29:38;;;;;;;2.70;2.50;;;;;;;17.75;62.57;94934.28;5133867;27;20242;-64
2023/09/04 05:32:05;;;;;;;2.60;2.40;;;;;;;17.73;62.58;94936.66;5137377;27;20198;-64
2023/09/04 05:34:32;;;;;;;2.67;2.47;;;;;;;17.70;62.39;94942.25;5119294;27;20199;-64
2023/09/04 05:37:01;;;;;;;2.40;2.20;;;;;;;17.70;62.47;94933.88;5137589;27;20258;-64
2023/09/04 05:39:28;;;;;;;3.10;2.90;;;;;;;17.71;62.55;94935.47;5119094;27;20191;-64
2023/09/04 05:41:55;;;;;;;3.30;3.00;;;;;;;17.74;62.55;94931.88;5119460;27;20217;-64
2023/09/04 05:44:21;;;;;;;2.70;2.60;;;;;;;17.73;62.13;94921.94;5137095;27;20183;-64
2023/09/04 05:46:48;;;;;;;2.92;2.72;;;;;;;17.75;61.77;94928.72;5137031;27;20193;-64
2023/09/04 05:49:15;;;;;;;3.00;2.80;;;;;;;17.73;61.99;94928.31;5136626;27;20625;-64
2023/09/04 05:51:42;;;;;;;3.22;3.03;;;;;;;17.75;62.15;94927.88;5118318;27;20272;-64
2023/09/04 05:54:10;;;;;;;2.75;2.55;;;;;;;17.76;61.88;94929.53;5136985;27;20205;-64
2023/09/04 05:56:37;;;;;;;2.97;2.78;;;;;;;17.72;62.20;94923.09;5136968;27;20195;-64
2023/09/04 05:59:05;;;;;;;3.10;2.90;;;;;;;17.73;62.35;94931.09;5136795;27;20203;-64
2023/09/04 06:01:31;;;;;;;3.40;3.17;;;;;;;17.75;62.07;94920.34;5136769;27;20267;-64
2023/09/04 06:03:58;;;;;;;3.20;3.00;;;;;;;17.74;61.62;94923.50;5136772;27;20187;-64
2023/09/04 06:06:25;;;;;;;3.55;3.25;;;;;;;17.76;61.75;94919.16;5136630;27;20203;-64
2023/09/04 06:08:52;;;;;;;4.10;3.30;;;;;;;17.78;61.38;94921.53;5118780;27;20645;-64
2023/09/04 06:11:20;;;;;;;3.83;3.00;;;;;;;17.76;61.79;94916.38;5101718;27;20183;-64
2023/09/04 06:13:47;;;;;;;2.97;2.78;;;;;;;17.75;61.57;94917.56;5136574;27;20183;-64
2023/09/04 06:16:14;;;;;;;3.70;3.40;;;;;;;17.76;61.92;94926.75;5136298;27;20183;-64
2023/09/04 06:18:40;;;;;;;3.60;3.30;;;;;;;17.75;61.98;94928.72;5118512;27;20198;-64
2023/09/04 06:21:07;;;;;;;3.80;3.50;;;;;;;17.72;61.03;94925.91;5136489;27;20218;-64
2023/09/04 06:23:34;;;;;;;3.35;2.95;;;;;;;17.68;61.39;94914.75;5118526;27;20206;-64
2023/09/04 06:26:02;;;;;;;3.67;3.38;;;;;;;17.65;61.48;94917.56;5136595;27;20183;-64
2023/09/04 06:28:30;;;;;;;3.33;3.03;;;;;;;17.59;61.04;94922.75;5114557;28;20232;-64
2023/09/04 06:30:57;;;;;;;3.20;3.00;;;;;;;17.59;61.33;94925.53;5115834;28;20198;-64
2023/09/04 06:33:25;;;;;;;5.70;5.20;;;;;;;17.61;60.99;94919.56;5115903;28;20187;-64
2023/09/04 06:35:51;;;;;;;3.50;3.20;;;;;;;17.60;60.96;94924.34;5115982;28;20256;-64
2023/09/04 06:38:18;;;;;;;3.05;2.85;;;;;;;17.60;61.24;94923.53;5114819;28;20214;-64
2023/09/04 06:40:45;;;;;;;3.50;3.20;;;;;;;17.57;61.10;94922.34;5115141;28;20211;-64
2023/09/04 06:43:12;;;;;;;3.05;2.85;;;;;;;17.59;61.17;94924.75;5115949;28;20188;-64
2023/09/04 06:45:40;;;;;;;3.10;2.90;;;;;;;17.64;61.36;94932.69;5114739;28;20196;-64
2023/09/04 06:48:07;;;;;;;3.53;3.20;;;;;;;17.69;61.46;94940.69;5114623;28;20248;-64
2023/09/04 06:50:34;;;;;;;3.72;3.42;;;;;;;17.72;60.87;94939.84;5114431;28;20199;-64
2023/09/04 06:53:00;;;;;;;3.97;3.53;;;;;;;17.77;61.31;94933.91;5115267;28;20191;-64
2023/09/04 06:55:27;;;;;;;3.53;3.20;;;;;;;17.84;61.78;94933.09;5115270;28;20225;-64
2023/09/04 06:57:54;;;;;;;3.30;3.10;;;;;;;17.91;61.46;94935.84;5114803;28;20217;-64
2023/09/04 07:00:21;;;;;;;3.10;2.90;;;;;;;17.90;61.12;94928.66;5114702;28;20203;-64
2023/09/04 07:02:49;;;;;;;3.80;3.50;;;;;;;17.89;60.76;94936.25;5116904;28;20199;-64
2023/09/04 07:05:17;;;;;;;3.40;3.10;;;;;;;17.94;60.60;94941.44;5119857;28;20199;-64
2023/09/04 07:07:43;;;;;;;3.63;3.33;;;;;;;17.96;60.62;94944.59;5119459;28;20206;-64
2023/09/04 07:10:10;;;;;;;3.65;3.40;;;;;;;18.00;60.71;94936.22;5118934;28;20196;-64
2023/09/04 07:12:37;;;;;;;3.55;3.33;;;;;;;18.00;60.32;94942.59;5117756;28;20202;-64
2023/09/04 07:15:05;;;;;;;3.88;3.33;;;;;;;17.99;60.47;94943.00;5118305;28;20544;-64
2023/09/04 07:17:32;;;;;;;4.10;3.67;;;;;;;17.99;60.98;94937.41;5119336;28;20176;-64
2023/09/04 07:20:00;;;;;;;4.30;3.10;;;;;;;17.99;61.44;94943.78;5118499;28;20294;-64
2023/09/04 07:22:27;;;;;;;3.53;3.22;;;;;;;18.05;61.19;94944.19;5118479;28;20216;-64
2023/09/04 07:24:54;;;;;;;3.90;3.40;;;;;;;18.08;61.13;94948.94;5119033;28;20179;-64
2023/09/04 07:27:21;;;;;;;3.78;3.50;;;;;;;18.08;61.01;94948.13;5117945;28;20200;-64
2023/09/04 07:29:47;;;;;;;3.70;3.47;;;;;;;18.06;60.66;94953.34;5135367;27;20323;-64
2023/09/04 07:32:13;;;;;;;3.67;3.45;;;;;;;18.01;60.51;94957.31;5139699;27;20556;-64
2023/09/04 07:34:40;;;;;;;3.50;3.30;;;;;;;18.02;60.54;94968.09;5139696;27;20191;-64
2023/09/04 07:37:08;;;;;;;3.65;3.38;;;;;;;18.03;59.83;94961.31;5121954;27;20203;-64
2023/09/04 07:39:35;;;;;;;3.92;3.63;;;;;;;17.99;59.92;94956.94;5139690;27;20183;-64
2023/09/04 07:42:01;;;;;;;4.00;3.65;;;;;;;17.96;59.66;94954.97;5121556;27;20203;-64
2023/09/04 07:44:28;;;;;;;3.83;3.53;;;;;;;17.93;59.58;94956.56;5121442;27;20203;-64
2023/09/04 07:46:55;;;;;;;3.63;3.40;;;;;;;17.93;60.17;94959.34;5139528;27;20191;-64
2023/09/04 07:49:22;;;;;;;4.03;3.72;;;;;;;17.92;60.06;94948.59;5139564;27;20198;-64
2023/09/04 07:51:48;;;;;;;4.07;3.75;;;;;;;17.90;60.06;94951.00;5139319;27;20187;-64
2023/09/04 07:54:16;;;;;;;3.92;3.60;;;;;;;17.90;60.45;94945.41;5139174;27;20183;-64
2023/09/04 07:56:43;;;;;;;3.70;3.40;;;;;;;17.87;60.15;94946.25;5139251;27;20251;-65
2023/09/04 07:59:10;;;;;;;3.83;3.60;;;;;;;17.90;60.31;94951.81;5139101;27;20204;-64
2023/09/04 08:01:37;;;;;;;4.22;3.83;;;;;;;17.93;59.90;94947.41;5138804;27;20548;-68
2023/09/04 08:04:04;;;;;;;4.10;3.72;;;;;;;17.94;59.94;94944.22;5121015;27;20506;-66
2023/09/04 08:06:31;;;;;;;4.90;4.50;;;;;;;18.00;60.20;94947.38;5138694;27;20187;-65
2023/09/04 08:08:57;;;;;;;5.03;4.63;;;;;;;18.01;60.06;94955.34;5138998;27;20256;-65
2023/09/04 08:11:26;;;;;;;4.95;4.55;;;;;;;17.99;59.96;94952.16;5121044;27;20199;-65
2023/09/04 08:13:52;;;;;;;4.95;4.55;;;;;;;18.06;60.50;94953.34;5119901;27;20195;-65
2023/09/04 08:16:19;;;;;;;5.28;4.45;;;;;;;18.11;60.51;94950.91;5138598;27;20186;-65
2023/09/04 08:18:46;;;;;;;4.85;4.45;;;;;;;18.16;60.36;94950.53;5139046;27;20183;-65
2023/09/04 08:21:13;;;;;;;4.82;4.40;;;;;;;18.15;59.70;94960.06;5121265;27;20219;-65
2023/09/04 08:23:39;;;;;;;4.50;4.13;;;;;;;18.16;59.34;94958.91;5120446;27;20203;-65
2023/09/04 08:26:06;;;;;;;4.80;4.40;;;;;;;18.20;59.80;94956.88;5138869;27;20179;-65
2023/09/04 08:28:35;;;;;;;4.65;4.25;;;;;;;18.23;59.84;94944.91;5138310;27;20231;-65
2023/09/04 08:31:01;;;;;;;4.55;4.13;;;;;;;18.26;59.55;94948.88;5120647;27;20550;-65
2023/09/04 08:33:28;;;;;;;4.80;4.50;;;;;;;18.31;59.85;94951.25;5120615;27;20210;-65
2023/09/04 08:35:55;;;;;;;4.72;4.32;;;;;;;18.40;60.08;94948.00;5138604;27;20199;-65
2023/09/04 08:38:22;;;;;;;4.65;4.25;;;;;;;18.42;59.23;94951.19;5120219;27;20203;-65
2023/09/04 08:40:49;;;;;;;5.07;4.68;;;;;;;18.48;59.88;94947.59;5120443;27;20195;-65
2023/09/04 08:43:17;;;;;;;4.80;4.30;;;;;;;18.55;58.71;94946.72;5120360;27;20244;-65
2023/09/04 08:45:45;;;;;;;4.70;4.40;;;;;;;18.56;58.38;94945.53;5120113;27;20611;-65
2023/09/04 08:48:14;;;;;;;5.18;4.78;;;;;;;18.61;58.59;94945.09;5138033;27;20693;-65
2023/09/04 08:50:41;;;;;;;5.07;4.68;;;;;;;18.60;57.72;94940.72;5120174;27;20192;-65
2023/09/04 08:53:08;;;;;;;4.65;4.30;;;;;;;18.53;57.75;94943.56;5138118;27;20187;-65
2023/09/04 08:55:35;;;;;;;5.40;5.00;;;;;;;18.54;58.10;94939.56;5138108;27;20277;-65
2023/09/04 08:58:03;;;;;;;4.95;4.45;;;;;;;18.60;58.29;94939.94;5138091;27;20191;-65
2023/09/04 09:00:31;;;;;;;5.90;4.90;;;;;;;18.61;57.94;94947.09;5119617;27;20222;-64
2023/09/04 09:03:00;;;;;;;5.72;5.32;;;;;;;18.54;57.59;94950.72;5137847;27;20225;-64
2023/09/04 09:05:27;;;;;;;5.18;4.75;;;;;;;18.48;57.88;94952.34;5119994;27;20191;-65
2023/09/04 09:07:55;;;;;;;5.88;5.38;;;;;;;18.43;58.10;94955.56;5137560;27;20191;-65
2023/09/04 09:10:22;;;;;;;6.10;5.50;;;;;;;18.38;57.94;94956.81;5119458;27;20248;-65
2023/09/04 09:12:48;;;;;;;5.00;4.63;;;;;;;18.34;58.15;94955.22;5119807;27;20248;-65
2023/09/04 09:15:17;;;;;;;5.40;4.80;;;;;;;18.30;58.54;94949.66;5119476;27;20210;-65
2023/09/04 09:17:54;;;;;;;5.55;5.05;;;;;;;18.28;58.68;94950.06;5119809;27;20218;-65
2023/09/04 09:20:33;;;;;;;5.43;4.85;;;;;;;18.29;59.28;94962.03;5119405;27;20594;-65
2023/09/04 09:22:59;;;;;;;6.00;5.50;;;;;;;18.29;58.94;94959.22;5120023;27;20275;-65
2023/09/04 09:25:28;;;;;;;5.47;5.05;;;;;;;18.28;59.16;94961.22;5137170;27;20198;-65
2023/09/04 09:27:59;;;;;;;6.07;5.57;;;;;;;18.25;59.05;94966.81;5137572;27;20198;-65
2023/09/04 09:30:26;;;;;;;5.50;5.00;;;;;;;18.23;58.92;94966.44;5119437;27;20226;-65
2023/09/04 09:32:54;;;;;;;5.25;4.82;;;;;;;18.21;58.86;94974.41;5137005;27;20590;-65
2023/09/04 09:35:21;;;;;;;5.68;5.28;;;;;;;18.18;59.46;94966.84;5119168;27;20326;-65
2023/09/04 09:37:49;;;;;;;6.45;5.88;;;;;;;18.18;59.41;94967.63;5119371;27;20210;-65
2023/09/04 09:40:16;;;;;;;6.38;5.78;;;;;;;18.17;59.35;94963.28;5119343;27;20199;-65
2023/09/04 09:42:43;;;;;;;5.50;5.10;;;;;;;18.18;59.23;94961.28;5118698;27;20219;-65
2023/09/04 09:45:10;;;;;;;5.70;5.28;;;;;;;18.19;59.14;94963.66;5119681;27;20248;-65
2023/09/04 09:47:37;;;;;;;5.40;4.93;;;;;;;18.20;58.99;94958.88;5119182;27;20248;-65
2023/09/04 09:50:05;;;;;;;6.15;5.55;;;;;;;18.19;59.89;94966.47;5136710;27;20203;-65
2023/09/04 09:52:31;;;;;;;6.18;5.68;;;;;;;18.18;60.03;94966.84;5119121;27;20191;-65
2023/09/04 09:54:59;;;;;;;5.53;5.03;;;;;;;18.17;59.76;94962.47;5118915;27;20199;-65
2023/09/04 09:57:28;;;;;;;5.82;5.40;;;;;;;18.16;61.29;94961.69;5136797;27;20198;-65
2023/09/04 09:59:54;;;;;;;6.50;5.97;;;;;;;18.13;61.00;94958.91;5118769;27;20202;-65
2023/09/04 10:02:23;;;;;;;6.63;6.03;;;;;;;18.07;61.20;94958.50;5136840;27;20213;-65
2023/09/04 10:04:50;;;;;;;6.28;5.78;;;;;;;18.06;61.09;94953.34;5136823;27;20183;-65
2023/09/04 10:07:18;;;;;;;6.20;5.70;;;;;;;18.05;61.24;94955.34;5119132;27;20191;-65
2023/09/04 10:09:46;;;;;;;5.72;5.32;;;;;;;18.04;61.44;94957.31;5118698;27;20191;-65
2023/09/04 10:12:20;;;;;;;5.25;4.85;;;;;;;18.00;61.14;94952.94;5136761;27;20194;-65
2023/09/04 10:14:47;;;;;;;5.32;4.93;;;;;;;17.99;62.80;94957.75;5136642;27;20179;-65
2023/09/04 10:17:17;;;;;;;6.05;5.55;;;;;;;17.97;63.86;94957.38;5136840;27;20187;-65
2023/09/04 10:19:45;;;;;;;6.47;6.00;;;;;;;17.96;64.75;94949.38;5118522;27;20226;-65
2023/09/04 10:22:17;;;;;;;6.28;5.68;;;;;;;17.92;64.35;94946.59;5136506;27;20207;-65
2023/09/04 10:24:46;;;;;;;5.95;5.35;;;;;;;17.87;66.12;94949.03;5136450;27;20244;-65
2023/09/04 10:27:15;;;;;;;6.85;6.25;;;;;;;17.82;66.84;94950.22;5136495;27;20202;-65
2023/09/04 10:29:48;;;;;;;6.10;5.60;;;;;;;17.77;66.33;94945.84;5136301;27;20238;-65
2023/09/04 10:32:15;;;;;;;6.28;5.68;;;;;;;17.79;66.60;94951.00;5136546;27;20179;-65
2023/09/04 10:34:41;;;;;;;6.43;5.88;;;;;;;17.79;67.45;94945.44;5118419;27;20625;-65
2023/09/04 10:37:10;;;;;;;6.53;5.90;;;;;;;17.77;67.71;94948.63;5117848;27;20211;-65
2023/09/04 10:39:37;;;;;;;5.80;5.30;;;;;;;17.76;69.07;94952.63;5136138;27;20183;-65
2023/09/04 10:42:04;;;;;;;5.65;5.25;;;;;;;17.72;69.33;94951.81;5118419;28;20222;-65
2023/09/04 10:44:49;;;;;;;6.25;5.65;;;;;;;17.78;69.77;94949.44;5117901;28;20243;-65
2023/09/04 10:47:17;;;;;;;8.82;8.02;;;;;;;17.69;70.37;94952.63;5118518;28;20202;-65
2023/09/04 10:49:45;;;;;;;8.32;7.63;;;;;;;17.70;70.86;94959.00;5136172;28;20191;-65
2023/09/04 10:52:12;;;;;;;13.38;12.32;;;;;;;17.66;70.27;94956.22;5135876;28;20194;-64
2023/09/04 10:54:39;;;;;;;25.75;23.10;;;;;;;17.67;70.25;94954.22;5136098;28;20183;-64
2023/09/04 10:57:10;;;;;;;19.45;17.55;;;;;;;17.69;70.50;94966.56;5117722;28;20247;-64
2023/09/04 11:00:01;;;;;;;10.98;9.77;;;;;;;17.66;71.55;94967.38;5136362;28;20302;-65
2023/09/04 11:02:28;;;;;;;7.50;6.80;;;;;;;17.59;71.59;94967.38;5117973;28;20274;-64
2023/09/04 11:04:56;;;;;;;7.97;7.28;;;;;;;17.49;72.17;94971.75;5117706;28;20301;-64
2023/09/04 11:07:32;;;;;;;8.10;7.30;;;;;;;17.51;72.66;94963.00;5136008;28;20198;-64
2023/09/04 11:10:36;;;;;;;7.38;6.70;;;;;;;17.50;73.35;94969.75;5117980;28;20210;-64
2023/09/04 11:13:03;;;;;;;7.13;6.53;;;;;;;17.48;73.70;94972.97;5135914;28;20206;-64
2023/09/04 11:15:33;;;;;;;7.25;6.57;;;;;;;17.43;73.86;94967.81;5135940;28;20183;-64
2023/09/04 11:18:01;;;;;;;9.70;8.80;;;;;;;17.44;73.72;94968.59;5135994;28;20192;-64
2023/09/04 11:20:27;;;;;;;8.77;7.97;;;;;;;17.46;74.31;94971.75;5135835;28;20191;-64
2023/09/04 11:22:55;;;;;;;6.18;5.68;;;;;;;17.45;74.08;94970.19;5118341;28;20245;-64
2023/09/04 11:25:23;;;;;;;6.38;5.78;;;;;;;17.45;73.81;94970.19;5117868;28;20203;-65
2023/09/04 11:27:50;;;;;;;5.68;5.28;;;;;;;17.42;72.99;94966.19;5136084;28;20202;-64
2023/09/04 11:30:16;;;;;;;5.60;5.10;;;;;;;17.40;73.81;94979.75;5114041;28;20654;-64
2023/09/04 11:32:45;;;;;;;6.50;5.70;;;;;;;17.41;73.95;94980.53;5115473;28;20189;-64
2023/09/04 11:35:12;;;;;;;5.20;4.80;;;;;;;17.38;74.06;94973.75;5114748;28;20191;-64
2023/09/04 11:37:39;;;;;;;5.53;5.10;;;;;;;17.37;73.85;94972.19;5114322;28;20204;-64